Time;durP1;ratioP1;P1;durP2;ratioP2;P2;SDS_P1;SDS_P2;PMS_P1;PMS_P2;Temp;Humidity;BMP_temperature;BMP_pressure;BME280_temperature;BME280_humidity;BME280_pressure;Samples;Min_cycle;Max_cycle;Signal;HPM_P1;HPM_P2
2023/04/24 00:01:12;;;;;;;2.37;1.43;;;16.40;58.70;;;;;;5051032;28;20471;-86
2023/04/24 00:03:39;;;;;;;1.30;1.20;;;16.60;58.30;;;;;;5077994;28;20528;-87
2023/04/24 00:06:07;;;;;;;13.17;1.97;;;16.50;57.90;;;;;;5070043;27;20964;-87
2023/04/24 00:08:35;;;;;;;1.43;1.00;;;16.30;58.30;;;;;;5085873;28;20651;-86
2023/04/24 00:11:03;;;;;;;1.60;1.50;;;16.40;58.60;;;;;;5094238;28;20455;-87
2023/04/24 00:13:30;;;;;;;1.30;1.00;;;16.30;58.10;;;;;;5076306;28;20474;-86
2023/04/24 00:15:58;;;;;;;1.60;1.30;;;16.30;58.20;;;;;;5076127;28;20833;-86
2023/04/24 00:18:25;;;;;;;1.53;1.30;;;16.20;58.00;;;;;;5094913;28;20554;-86
2023/04/24 00:20:52;;;;;;;2.17;1.53;;;16.30;58.20;;;;;;5074565;28;20436;-87
2023/04/24 00:23:19;;;;;;;1.50;1.40;;;16.30;57.90;;;;;;5058797;28;20983;-87
2023/04/24 00:25:46;;;;;;;2.30;1.40;;;16.40;58.20;;;;;;5085475;28;20443;-87
2023/04/24 00:28:13;;;;;;;2.30;1.20;;;16.50;57.90;;;;;;5107735;27;20447;-86
2023/04/24 00:30:41;;;;;;;2.63;1.20;;;16.40;58.20;;;;;;5067873;28;20501;-85
2023/04/24 00:33:10;;;;;;;1.10;1.00;;;16.40;58.10;;;;;;5040720;28;20444;-86
2023/04/24 00:35:37;;;;;;;1.70;1.20;;;16.30;57.80;;;;;;5061513;28;21214;-87
2023/04/24 00:38:05;;;;;;;1.50;1.40;;;16.10;58.30;;;;;;5077035;28;20520;-87
2023/04/24 00:40:32;;;;;;;1.57;1.47;;;16.10;58.70;;;;;;5077789;28;20552;-86
2023/04/24 00:42:59;;;;;;;2.90;1.50;;;16.20;59.40;;;;;;5054638;28;20450;-88
2023/04/24 00:45:27;;;;;;;1.70;1.30;;;16.10;58.70;;;;;;5053179;27;20455;-85
2023/04/24 00:47:54;;;;;;;1.33;1.23;;;16.30;58.40;;;;;;5052902;28;20442;-86
2023/04/24 00:50:25;;;;;;;3.17;1.37;;;16.20;58.00;;;;;;5070450;27;20460;-87
2023/04/24 00:52:52;;;;;;;2.47;1.40;;;16.10;59.30;;;;;;5050345;28;21005;-88
2023/04/24 00:55:19;;;;;;;1.57;1.47;;;15.90;58.70;;;;;;5081692;27;20579;-87
2023/04/24 00:57:47;;;;;;;2.03;1.43;;;15.90;59.20;;;;;;5062417;28;20546;-87
2023/04/24 01:00:16;;;;;;;4.80;1.50;;;16.10;59.60;;;;;;5090243;27;20481;-86
2023/04/24 01:02:45;;;;;;;2.10;1.10;;;15.80;59.00;;;;;;5065734;28;20872;-86
2023/04/24 01:05:13;;;;;;;1.30;1.20;;;15.60;58.80;;;;;;5065664;27;20464;-86
2023/04/24 01:07:45;;;;;;;2.03;1.00;;;15.50;59.80;;;;;;5094017;27;20452;-88
2023/04/24 01:10:13;;;;;;;2.27;1.30;;;15.40;59.60;;;;;;5046776;28;20442;-87
2023/04/24 01:12:41;;;;;;;1.60;1.10;;;15.30;60.40;;;;;;5039910;28;20455;-87
2023/04/24 01:15:09;;;;;;;2.17;1.30;;;15.40;59.50;;;;;;5087352;28;20842;-87
2023/04/24 01:17:38;;;;;;;5.20;1.20;;;15.40;60.10;;;;;;5083603;28;20531;-88
2023/04/24 01:20:06;;;;;;;1.67;1.50;;;15.50;59.40;;;;;;5065901;28;20963;-87
2023/04/24 01:22:35;;;;;;;5.47;1.40;;;15.60;59.50;;;;;;5066332;28;20439;-87
2023/04/24 01:25:03;;;;;;;1.00;0.90;;;15.50;59.60;;;;;;5092610;27;20498;-87
2023/04/24 01:27:31;;;;;;;1.33;1.23;;;15.70;58.90;;;;;;5048799;28;20450;-85
2023/04/24 01:29:58;;;;;;;3.90;1.20;;;15.70;58.80;;;;;;5077842;28;20537;-87
2023/04/24 01:32:26;;;;;;;1.40;1.00;;;16.00;58.10;;;;;;5057380;28;20976;-86
2023/04/24 01:34:53;;;;;;;1.40;1.10;;;16.30;58.70;;;;;;5082568;28;20496;-87
2023/04/24 01:37:20;;;;;;;1.20;1.00;;;16.50;58.80;;;;;;5100533;27;20463;-86
2023/04/24 01:39:48;;;;;;;1.73;1.00;;;16.40;57.30;;;;;;5080726;28;20466;-87
2023/04/24 01:42:17;;;;;;;1.60;1.00;;;16.00;57.40;;;;;;5076551;28;20550;-87
2023/04/24 01:44:44;;;;;;;1.30;1.00;;;15.80;58.10;;;;;;5056209;28;20460;-87
2023/04/24 01:47:11;;;;;;;1.83;1.20;;;15.90;58.40;;;;;;5039324;28;20537;-86
2023/04/24 01:49:39;;;;;;;1.73;1.20;;;16.10;57.90;;;;;;5066219;28;20455;-86
2023/04/24 01:52:07;;;;;;;2.50;1.20;;;16.20;57.80;;;;;;5072797;27;20953;-86
2023/04/24 01:54:34;;;;;;;1.20;1.10;;;16.30;57.20;;;;;;5108773;27;20928;-87
2023/04/24 01:57:04;;;;;;;1.40;0.97;;;16.40;57.00;;;;;;5045288;28;20487;-86
2023/04/24 01:59:33;;;;;;;2.40;1.10;;;16.40;57.40;;;;;;5066206;28;20550;-86
2023/04/24 02:02:00;;;;;;;1.60;1.30;;;16.30;57.70;;;;;;5067970;28;20528;-87
2023/04/24 02:04:27;;;;;;;1.63;1.00;;;16.30;57.10;;;;;;5072993;28;20472;-87
2023/04/24 02:06:54;;;;;;;1.50;1.17;;;16.30;57.80;;;;;;5048868;28;20455;-88
2023/04/24 02:09:21;;;;;;;1.67;1.20;;;16.30;58.10;;;;;;5073827;28;20504;-87
2023/04/24 02:11:48;;;;;;;2.60;1.03;;;16.50;57.90;;;;;;5073287;28;21011;-88
2023/04/24 02:14:17;;;;;;;1.40;1.20;;;16.60;57.80;;;;;;5073712;27;20912;-85
2023/04/24 02:16:45;;;;;;;1.63;1.30;;;16.50;56.90;;;;;;5055616;28;20551;-86
2023/04/24 02:19:12;;;;;;;2.50;1.20;;;16.50;57.40;;;;;;5064610;28;20443;-84
2023/04/24 02:21:39;;;;;;;3.37;1.00;;;16.40;57.00;;;;;;5074541;28;20443;-88
2023/04/24 02:24:09;;;;;;;2.20;1.10;;;16.40;57.00;;;;;;5099657;27;20550;-87
2023/04/24 02:26:37;;;;;;;1.93;1.03;;;16.30;57.80;;;;;;5072522;28;20444;-85
2023/04/24 02:29:04;;;;;;;1.67;1.37;;;16.00;57.80;;;;;;5050401;28;20451;-88
2023/04/24 02:31:32;;;;;;;1.20;1.10;;;16.20;57.70;;;;;;5070046;28;21039;-86
2023/04/24 02:33:59;;;;;;;2.23;1.13;;;16.30;57.60;;;;;;5064884;28;20467;-87
2023/04/24 02:36:26;;;;;;;1.97;1.10;;;16.20;57.50;;;;;;5094790;27;20500;-86
2023/04/24 02:38:53;;;;;;;1.83;1.20;;;16.20;57.50;;;;;;5051439;28;20495;-87
2023/04/24 02:41:20;;;;;;;2.17;1.10;;;15.90;58.30;;;;;;5079286;28;20470;-87
2023/04/24 02:43:47;;;;;;;1.20;1.00;;;15.80;58.50;;;;;;5079614;28;20948;-88
2023/04/24 02:46:14;;;;;;;1.30;1.20;;;15.90;58.30;;;;;;5091128;28;20440;-87
2023/04/24 02:48:43;;;;;;;0.90;0.80;;;16.00;57.90;;;;;;5065756;28;20462;-87
2023/04/24 02:51:10;;;;;;;3.03;1.20;;;15.80;57.60;;;;;;5068175;27;20439;-87
2023/04/24 02:53:37;;;;;;;1.17;1.07;;;15.80;58.80;;;;;;5086784;28;20975;-87
2023/04/24 02:56:04;;;;;;;2.30;1.30;;;16.00;58.40;;;;;;5081524;28;20447;-86
2023/04/24 02:58:31;;;;;;;4.60;1.37;;;16.30;58.10;;;;;;5053630;28;21222;-86
2023/04/24 03:00:58;;;;;;;2.00;1.17;;;16.40;57.70;;;;;;5083698;28;20976;-85
2023/04/24 03:03:25;;;;;;;4.27;1.20;;;16.50;56.50;;;;;;5054684;28;20487;-87
2023/04/24 03:05:55;;;;;;;1.60;1.23;;;16.50;56.90;;;;;;5047321;28;20493;-86
2023/04/24 03:08:22;;;;;;;1.43;1.20;;;16.40;56.80;;;;;;5094684;27;20443;-85
2023/04/24 03:10:49;;;;;;;1.40;1.13;;;16.20;56.50;;;;;;5108598;27;20436;-87
2023/04/24 03:13:17;;;;;;;1.93;1.30;;;16.20;56.80;;;;;;5068444;27;20525;-87
2023/04/24 03:15:44;;;;;;;1.30;1.20;;;16.00;57.50;;;;;;5067408;28;20504;-85
2023/04/24 03:18:11;;;;;;;2.40;1.20;;;15.90;57.50;;;;;;5061099;28;20432;-86
2023/04/24 03:20:38;;;;;;;1.23;1.10;;;16.00;57.20;;;;;;5081154;28;20546;-86
2023/04/24 03:23:07;;;;;;;1.20;1.10;;;15.70;58.10;;;;;;5085309;28;20499;-87
2023/04/24 03:25:35;;;;;;;1.30;1.10;;;15.70;58.50;;;;;;5077352;28;20490;-87
2023/04/24 03:28:09;;;;;;;1.20;1.10;;;15.80;58.20;;;;;;5084613;28;20466;-87
2023/04/24 03:30:43;;;;;;;1.50;1.03;;;15.90;58.20;;;;;;5074814;28;20451;-87
2023/04/24 03:33:11;;;;;;;2.23;1.10;;;15.90;57.60;;;;;;5074989;28;20440;-86
2023/04/24 03:35:45;;;;;;;1.10;1.00;;;16.10;57.90;;;;;;5064263;28;20471;-87
2023/04/24 03:38:14;;;;;;;1.30;1.20;;;16.10;56.90;;;;;;5100590;28;20454;-85
2023/04/24 03:40:55;;;;;;;1.20;1.10;;;16.00;57.60;;;;;;5071450;28;20468;-87
2023/04/24 03:43:34;;;;;;;1.57;1.10;;;16.20;57.70;;;;;;5075766;28;20984;-87
2023/04/24 03:46:02;;;;;;;1.40;1.13;;;16.40;57.50;;;;;;5074084;28;20462;-87
2023/04/24 03:48:31;;;;;;;3.17;1.30;;;16.40;57.10;;;;;;5072515;28;20451;-86
2023/04/24 03:50:59;;;;;;;1.80;1.40;;;16.00;57.10;;;;;;5083716;28;20470;-85
2023/04/24 03:53:27;;;;;;;3.23;1.20;;;16.00;57.70;;;;;;5064334;28;20463;-87
2023/04/24 03:55:56;;;;;;;2.50;1.37;;;15.90;57.70;;;;;;5069575;28;20459;-87
2023/04/24 03:58:24;;;;;;;1.97;1.30;;;16.10;57.80;;;;;;5065388;28;20538;-86
2023/04/24 04:00:52;;;;;;;1.10;1.00;;;16.30;57.30;;;;;;5055361;28;21008;-87
2023/04/24 04:03:39;;;;;;;1.67;1.10;;;15.90;57.40;;;;;;5052608;28;20467;-88
2023/04/24 04:06:06;;;;;;;1.60;1.30;;;16.00;58.10;;;;;;5056463;28;20467;-87
2023/04/24 04:08:35;;;;;;;1.50;1.37;;;16.10;57.70;;;;;;5055026;28;21012;-87
2023/04/24 04:11:03;;;;;;;1.50;1.20;;;16.00;57.70;;;;;;5093757;28;20508;-86
2023/04/24 04:13:30;;;;;;;3.60;1.17;;;16.10;57.60;;;;;;5074787;28;20770;-85
2023/04/24 04:15:58;;;;;;;5.27;1.63;;;16.20;57.80;;;;;;5065383;28;20965;-86
2023/04/24 04:18:25;;;;;;;1.30;1.20;;;16.20;57.50;;;;;;5073665;28;20439;-86
2023/04/24 04:20:52;;;;;;;2.50;1.40;;;16.20;58.20;;;;;;5091635;28;20459;-88
2023/04/24 04:23:19;;;;;;;1.60;1.30;;;16.30;58.70;;;;;;5071965;28;20609;-86
2023/04/24 04:26:18;;;;;;;3.43;1.40;;;16.20;59.00;;;;;;5076484;28;20448;-87
2023/04/24 04:29:03;;;;;;;3.93;1.63;;;15.90;61.20;;;;;;5069883;28;20447;-88
2023/04/24 04:31:31;;;;;;;1.40;1.30;;;15.60;62.70;;;;;;5078371;28;20477;-87
2023/04/24 04:34:02;;;;;;;3.80;1.43;;;15.30;62.00;;;;;;5047075;28;20496;-88
2023/04/24 04:36:32;;;;;;;1.40;1.27;;;15.10;62.00;;;;;;5107574;27;20454;-87
2023/04/24 04:39:08;;;;;;;2.00;1.30;;;15.10;62.90;;;;;;5093102;27;20504;-88
2023/04/24 04:41:53;;;;;;;1.50;1.40;;;15.10;61.70;;;;;;5063572;28;20466;-88
2023/04/24 04:44:23;;;;;;;1.70;1.60;;;15.00;62.30;;;;;;5043645;28;20482;-88
2023/04/24 04:46:53;;;;;;;1.50;1.40;;;15.10;62.20;;;;;;5075680;28;20460;-89
2023/04/24 04:49:28;;;;;;;1.40;1.30;;;15.10;61.90;;;;;;5071566;28;20978;-87
2023/04/24 04:51:55;;;;;;;2.50;1.83;;;15.00;62.10;;;;;;5050514;28;20557;-87
2023/04/24 04:54:25;;;;;;;3.63;2.50;;;15.20;62.40;;;;;;5082958;28;20602;-88
2023/04/24 04:56:53;;;;;;;2.23;1.93;;;15.20;62.00;;;;;;5091782;27;20454;-88
2023/04/24 04:59:21;;;;;;;2.80;1.50;;;15.00;62.00;;;;;;5060106;28;20450;-88
2023/04/24 05:01:51;;;;;;;1.87;1.47;;;14.80;62.40;;;;;;5086144;28;20460;-87
2023/04/24 05:04:18;;;;;;;1.90;1.30;;;14.70;62.90;;;;;;5099197;28;20559;-88
2023/04/24 05:06:47;;;;;;;1.60;1.50;;;14.80;62.60;;;;;;5067372;28;20444;-86
2023/04/24 05:09:14;;;;;;;1.73;1.40;;;14.40;61.70;;;;;;5085004;28;20471;-88
2023/04/24 05:11:48;;;;;;;1.43;1.33;;;14.50;62.40;;;;;;5074899;28;20436;-89
2023/04/24 05:14:17;;;;;;;1.77;1.47;;;14.50;62.30;;;;;;5049601;28;20799;-86
2023/04/24 05:16:45;;;;;;;1.80;1.53;;;14.30;61.10;;;;;;5069578;28;20504;-86
2023/04/24 05:19:14;;;;;;;1.20;1.10;;;14.20;61.60;;;;;;5072808;28;20451;-88
2023/04/24 05:21:42;;;;;;;2.17;1.33;;;14.20;62.30;;;;;;5076183;28;20466;-88
2023/04/24 05:24:10;;;;;;;1.70;1.50;;;14.20;62.70;;;;;;5083603;28;20537;-89
2023/04/24 05:26:50;;;;;;;2.90;1.30;;;14.30;61.80;;;;;;5091901;28;20480;-89
2023/04/24 05:29:22;;;;;;;2.17;1.57;;;14.00;60.70;;;;;;5073953;28;20444;-88
2023/04/24 05:31:49;;;;;;;2.03;1.70;;;13.90;60.80;;;;;;5051618;28;20477;-88
2023/04/24 05:34:17;;;;;;;1.73;1.63;;;14.00;61.70;;;;;;5088235;28;20482;-86
2023/04/24 05:36:50;;;;;;;1.57;1.47;;;14.00;61.00;;;;;;5091726;28;20479;-88
2023/04/24 05:39:17;;;;;;;4.37;1.67;;;13.80;59.80;;;;;;5090873;27;20452;-86
2023/04/24 05:41:44;;;;;;;1.60;1.50;;;13.90;60.50;;;;;;5094013;28;20467;-87
2023/04/24 05:44:12;;;;;;;2.70;1.60;;;14.00;60.00;;;;;;5058535;28;20575;-85
2023/04/24 05:46:40;;;;;;;3.90;1.97;;;14.20;60.00;;;;;;5047490;28;20435;-88
2023/04/24 05:49:07;;;;;;;1.60;1.40;;;14.20;59.70;;;;;;5042628;28;20836;-88
2023/04/24 05:51:35;;;;;;;2.40;2.20;;;14.30;59.30;;;;;;5072998;28;20451;-87
2023/04/24 05:54:03;;;;;;;2.13;1.40;;;14.30;58.60;;;;;;5065275;28;20463;-86
2023/04/24 05:56:30;;;;;;;2.03;1.63;;;14.20;58.90;;;;;;5066957;28;21036;-86
2023/04/24 05:58:58;;;;;;;2.83;1.50;;;14.20;58.70;;;;;;5061478;28;20802;-88
2023/04/24 06:01:26;;;;;;;2.03;1.73;;;14.00;59.20;;;;;;5071044;28;20467;-88
2023/04/24 06:04:04;;;;;;;2.73;1.80;;;14.00;59.20;;;;;;5107692;27;20471;-86
2023/04/24 06:06:32;;;;;;;2.50;2.10;;;13.90;59.50;;;;;;5049505;28;20570;-88
2023/04/24 06:08:59;;;;;;;3.00;1.83;;;14.00;59.20;;;;;;5048242;28;20488;-88
2023/04/24 06:11:27;;;;;;;2.23;2.00;;;13.80;59.40;;;;;;5058856;28;20439;-87
2023/04/24 06:13:54;;;;;;;3.00;2.00;;;13.70;58.90;;;;;;5073637;28;20472;-86
2023/04/24 06:16:50;;;;;;;2.30;2.10;;;13.70;59.90;;;;;;5092937;27;20469;-88
2023/04/24 06:19:30;;;;;;;3.93;2.23;;;13.80;59.60;;;;;;5081488;27;20453;-87
2023/04/24 06:21:57;;;;;;;2.80;1.90;;;14.10;59.20;;;;;;5109006;27;20812;-88
2023/04/24 06:24:28;;;;;;;3.53;1.67;;;14.20;57.80;;;;;;5070576;28;20489;-88
2023/04/24 06:26:56;;;;;;;2.17;1.97;;;14.20;58.50;;;;;;5091869;28;20881;-87
2023/04/24 06:29:23;;;;;;;3.23;1.80;;;14.30;58.20;;;;;;5091516;27;20442;-87
2023/04/24 06:31:51;;;;;;;2.20;1.87;;;14.40;57.80;;;;;;5093109;27;20434;-87
2023/04/24 06:34:18;;;;;;;2.00;1.80;;;14.30;57.80;;;;;;5080054;28;20548;-87
2023/04/24 06:36:47;;;;;;;2.90;2.00;;;14.30;57.30;;;;;;5092037;27;20829;-87
2023/04/24 06:39:14;;;;;;;2.87;1.90;;;14.40;56.60;;;;;;5059294;28;20498;-84
2023/04/24 06:41:41;;;;;;;4.47;2.10;;;14.40;56.50;;;;;;5092988;28;20947;-87
2023/04/24 06:44:16;;;;;;;2.20;1.97;;;14.50;56.70;;;;;;5097434;28;20474;-85
2023/04/24 06:46:43;;;;;;;2.20;2.00;;;14.50;56.10;;;;;;5092231;27;20447;-85
2023/04/24 06:49:10;;;;;;;2.50;2.13;;;14.60;56.10;;;;;;5078558;28;20507;-88
2023/04/24 06:51:37;;;;;;;2.60;2.30;;;14.70;55.30;;;;;;5076472;28;20501;-85
2023/04/24 06:54:06;;;;;;;2.10;1.93;;;14.60;55.00;;;;;;5092675;27;20502;-87
2023/04/24 06:56:34;;;;;;;2.27;1.70;;;14.70;54.80;;;;;;5092694;28;20543;-87
2023/04/24 06:59:01;;;;;;;2.47;1.80;;;14.70;54.10;;;;;;5092755;27;20972;-87
2023/04/24 07:01:28;;;;;;;1.90;1.80;;;14.80;54.00;;;;;;5058753;27;20669;-84
2023/04/24 07:03:55;;;;;;;2.07;1.97;;;14.90;54.80;;;;;;5063532;28;20517;-88
2023/04/24 07:06:23;;;;;;;2.33;2.13;;;14.90;53.80;;;;;;5077959;28;20489;-88
2023/04/24 07:08:50;;;;;;;3.63;2.27;;;15.00;52.80;;;;;;5093482;28;20533;-87
2023/04/24 07:11:18;;;;;;;2.10;1.90;;;15.20;54.20;;;;;;5071481;28;20659;-85
2023/04/24 07:13:46;;;;;;;2.20;2.07;;;15.40;54.20;;;;;;5075082;28;20476;-85
2023/04/24 07:16:13;;;;;;;2.80;2.50;;;15.40;52.90;;;;;;5094167;27;20451;-87
2023/04/24 07:18:40;;;;;;;3.10;2.47;;;15.50;53.30;;;;;;5091034;27;20520;-87
2023/04/24 07:21:07;;;;;;;2.23;1.80;;;15.60;53.40;;;;;;5090518;28;20470;-88
2023/04/24 07:23:34;;;;;;;2.83;1.97;;;15.80;52.10;;;;;;5062391;28;21093;-87
2023/04/24 07:26:01;;;;;;;3.03;2.53;;;15.80;52.80;;;;;;5090120;28;20474;-85
2023/04/24 07:28:31;;;;;;;10.80;2.60;;;15.70;52.00;;;;;;5077865;28;20502;-87
2023/04/24 07:30:59;;;;;;;2.23;2.00;;;15.60;52.20;;;;;;5081643;28;20454;-86
2023/04/24 07:33:26;;;;;;;2.47;2.27;;;15.80;52.70;;;;;;5075608;27;20489;-86
2023/04/24 07:35:53;;;;;;;2.20;2.00;;;15.60;50.40;;;;;;5066765;28;20498;-86
2023/04/24 07:38:21;;;;;;;2.97;2.70;;;15.50;50.90;;;;;;5089197;28;20524;-87
2023/04/24 07:40:49;;;;;;;2.63;2.43;;;15.30;50.50;;;;;;5091471;28;20951;-88
2023/04/24 07:43:17;;;;;;;3.40;2.20;;;15.30;50.80;;;;;;5093010;28;20888;-85
2023/04/24 07:45:45;;;;;;;5.43;2.87;;;15.10;50.90;;;;;;5070727;28;20491;-86
2023/04/24 07:48:14;;;;;;;4.03;2.80;;;15.20;51.70;;;;;;5091087;28;20455;-88
2023/04/24 07:50:41;;;;;;;3.30;2.40;;;15.10;50.20;;;;;;5053851;28;20559;-85
2023/04/24 07:53:08;;;;;;;3.40;2.33;;;15.00;51.10;;;;;;5046090;28;20542;-88
2023/04/24 07:55:35;;;;;;;3.67;2.40;;;15.10;50.70;;;;;;5058049;28;20451;-87
2023/04/24 07:58:03;;;;;;;3.17;2.73;;;15.10;50.90;;;;;;5066988;28;20538;-87
2023/04/24 08:00:30;;;;;;;2.50;2.30;;;15.00;49.30;;;;;;5056046;28;20872;-85
2023/04/24 08:02:58;;;;;;;3.83;2.90;;;15.00;50.50;;;;;;5093039;28;20463;-87
2023/04/24 08:05:28;;;;;;;2.20;2.00;;;15.10;50.40;;;;;;5064175;28;20494;-86
2023/04/24 08:07:55;;;;;;;4.80;2.70;;;15.20;50.70;;;;;;5089198;28;21021;-87
2023/04/24 08:10:22;;;;;;;2.20;2.00;;;15.20;50.40;;;;;;5059620;28;20657;-87
2023/04/24 08:12:49;;;;;;;2.27;2.17;;;15.20;49.80;;;;;;5096645;27;20554;-86
2023/04/24 08:15:16;;;;;;;2.23;2.03;;;15.30;49.70;;;;;;5094933;27;20517;-85
2023/04/24 08:17:43;;;;;;;3.70;2.17;;;14.80;49.20;;;;;;5094977;28;20470;-87
2023/04/24 08:20:14;;;;;;;2.63;2.10;;;14.70;50.50;;;;;;5093535;28;20470;-86
2023/04/24 08:22:41;;;;;;;2.50;2.10;;;14.90;50.90;;;;;;5075063;28;20463;-86
2023/04/24 08:25:09;;;;;;;3.73;2.23;;;14.80;50.90;;;;;;5083922;28;20782;-86
2023/04/24 08:27:38;;;;;;;2.23;1.97;;;14.90;50.40;;;;;;5108333;27;20538;-86
2023/04/24 08:30:07;;;;;;;1.87;1.77;;;15.00;50.20;;;;;;5083628;28;20443;-84
2023/04/24 08:32:34;;;;;;;3.17;1.50;;;15.20;50.20;;;;;;5091964;27;21044;-87
2023/04/24 08:35:01;;;;;;;1.70;1.60;;;15.20;50.10;;;;;;5093158;28;20471;-85
2023/04/24 08:37:30;;;;;;;1.80;1.70;;;15.30;50.00;;;;;;5090935;28;21015;-86
2023/04/24 08:39:57;;;;;;;2.13;1.60;;;15.30;50.50;;;;;;5060775;28;20458;-86
2023/04/24 08:42:24;;;;;;;2.30;2.10;;;15.30;50.40;;;;;;5094741;27;20475;-87
2023/04/24 08:44:51;;;;;;;6.00;1.73;;;15.60;50.80;;;;;;5073935;27;20536;-87
2023/04/24 08:47:21;;;;;;;1.87;1.73;;;15.80;49.60;;;;;;5073439;28;20471;-86
2023/04/24 08:49:49;;;;;;;1.70;1.60;;;15.80;48.50;;;;;;5058382;28;20465;-85
2023/04/24 08:52:17;;;;;;;2.27;1.90;;;16.10;48.70;;;;;;5093443;28;20458;-86
2023/04/24 08:54:47;;;;;;;1.73;1.57;;;16.30;49.10;;;;;;5058734;27;20482;-85
2023/04/24 08:57:15;;;;;;;1.67;1.53;;;16.20;48.30;;;;;;5076014;28;20527;-85
2023/04/24 08:59:42;;;;;;;1.80;1.63;;;16.30;48.00;;;;;;5076456;28;20542;-84
2023/04/24 09:02:11;;;;;;;2.13;1.80;;;16.30;47.60;;;;;;5076702;28;20467;-86
2023/04/24 09:04:41;;;;;;;1.53;1.43;;;16.40;48.40;;;;;;5105812;27;20558;-87
2023/04/24 09:07:10;;;;;;;2.13;1.60;;;16.60;48.50;;;;;;5090001;28;20514;-86
2023/04/24 09:09:39;;;;;;;2.47;1.80;;;16.80;47.80;;;;;;5092620;28;20937;-83
2023/04/24 09:12:09;;;;;;;2.10;1.77;;;16.90;47.20;;;;;;5095865;27;20525;-87
2023/04/24 09:14:39;;;;;;;2.90;1.63;;;16.70;46.60;;;;;;5073682;27;20483;-84
2023/04/24 09:17:07;;;;;;;1.80;1.70;;;16.50;46.90;;;;;;5065735;28;20451;-88
2023/04/24 09:19:34;;;;;;;1.57;1.43;;;16.30;45.90;;;;;;5081708;28;20730;-86
2023/04/24 09:22:05;;;;;;;5.17;1.70;;;16.50;46.10;;;;;;5064521;28;20637;-86
2023/04/24 09:24:32;;;;;;;2.17;1.57;;;16.80;46.30;;;;;;5058272;28;20572;-86
2023/04/24 09:27:01;;;;;;;3.10;1.77;;;16.90;45.80;;;;;;5067549;28;20464;-85
2023/04/24 09:29:29;;;;;;;3.00;1.53;;;16.70;46.00;;;;;;5057389;28;20424;-88
2023/04/24 09:31:57;;;;;;;2.10;1.90;;;16.80;46.80;;;;;;5094589;27;20435;-86
2023/04/24 09:34:25;;;;;;;2.43;1.60;;;16.60;45.00;;;;;;5092226;27;20895;-87
2023/04/24 09:36:52;;;;;;;1.97;1.87;;;16.40;45.70;;;;;;5076565;28;20446;-87
2023/04/24 09:39:20;;;;;;;2.80;1.80;;;16.50;45.30;;;;;;5057130;28;20439;-84
2023/04/24 09:41:48;;;;;;;2.93;2.73;;;16.30;45.10;;;;;;5074114;28;20475;-85
2023/04/24 09:44:17;;;;;;;1.53;1.43;;;15.90;46.90;;;;;;5084158;28;20498;-87
2023/04/24 09:46:49;;;;;;;1.43;1.33;;;15.80;46.60;;;;;;5089848;27;21020;-87
2023/04/24 09:49:21;;;;;;;3.23;1.80;;;15.60;46.50;;;;;;5077708;28;20452;-87
2023/04/24 09:51:48;;;;;;;2.20;2.00;;;15.60;46.30;;;;;;5073725;27;20531;-85
2023/04/24 09:54:16;;;;;;;1.80;1.70;;;15.40;46.30;;;;;;5080524;28;20472;-87
2023/04/24 09:56:46;;;;;;;2.10;1.93;;;15.60;47.10;;;;;;5091951;27;20542;-87
2023/04/24 09:59:14;;;;;;;2.00;1.90;;;15.90;45.70;;;;;;5073021;28;20948;-86
2023/04/24 10:01:44;;;;;;;2.40;1.80;;;16.30;46.00;;;;;;5075832;27;20763;-87
2023/04/24 10:04:19;;;;;;;4.27;1.90;;;16.30;44.70;;;;;;5092667;28;20460;-85
2023/04/24 10:06:47;;;;;;;2.10;2.00;;;16.10;45.60;;;;;;5091235;28;20938;-87
2023/04/24 10:09:14;;;;;;;2.10;2.00;;;16.20;45.20;;;;;;5093392;28;20937;-87
2023/04/24 10:11:44;;;;;;;2.03;1.90;;;16.10;45.00;;;;;;5072406;28;20451;-89
2023/04/24 10:14:14;;;;;;;2.50;2.30;;;15.80;45.40;;;;;;5068373;28;20487;-87
2023/04/24 10:16:43;;;;;;;2.20;1.93;;;15.70;45.60;;;;;;5089881;28;20450;-87
2023/04/24 10:19:12;;;;;;;2.00;1.90;;;15.80;45.00;;;;;;5090630;27;20527;-87
2023/04/24 10:21:46;;;;;;;4.73;2.00;;;15.80;45.20;;;;;;5065629;28;20542;-87
2023/04/24 10:24:13;;;;;;;2.47;2.27;;;15.90;45.10;;;;;;5092063;28;20469;-87
2023/04/24 10:26:41;;;;;;;3.40;2.20;;;15.90;45.70;;;;;;5046945;28;20546;-87
2023/04/24 10:29:09;;;;;;;2.43;2.23;;;15.80;45.70;;;;;;5065564;28;20537;-86
2023/04/24 10:31:38;;;;;;;2.40;2.20;;;16.00;46.10;;;;;;5062740;28;20883;-83
2023/04/24 10:34:06;;;;;;;2.60;1.70;;;15.90;45.50;;;;;;5063741;28;20467;-86
2023/04/24 10:36:35;;;;;;;2.60;2.40;;;15.80;46.00;;;;;;5073283;28;20476;-86
2023/04/24 10:39:07;;;;;;;1.90;1.80;;;15.90;45.90;;;;;;5076567;28;20903;-87
2023/04/24 10:41:37;;;;;;;2.47;2.27;;;15.90;46.50;;;;;;5104982;27;20527;-84
2023/04/24 10:44:09;;;;;;;3.07;2.50;;;16.10;46.10;;;;;;5063917;28;20479;-85
2023/04/24 10:46:36;;;;;;;2.33;2.13;;;16.20;45.90;;;;;;5088369;27;20547;-87
2023/04/24 10:49:08;;;;;;;4.77;2.40;;;16.20;45.30;;;;;;5105551;27;20550;-84
2023/04/24 10:51:46;;;;;;;3.90;2.03;;;16.00;45.10;;;;;;5055981;28;20456;-84
2023/04/24 10:54:26;;;;;;;2.10;1.97;;;15.90;45.80;;;;;;5063484;28;20478;-87
2023/04/24 10:56:54;;;;;;;2.63;2.43;;;15.90;45.80;;;;;;5107617;27;20455;-87
2023/04/24 10:59:28;;;;;;;2.20;2.10;;;16.10;45.20;;;;;;5065800;28;20615;-86
2023/04/24 11:01:56;;;;;;;2.30;2.10;;;16.00;45.40;;;;;;5058407;28;21653;-86
2023/04/24 11:04:34;;;;;;;2.27;2.17;;;15.90;46.00;;;;;;5089645;28;20460;-86
2023/04/24 11:07:03;;;;;;;2.60;2.40;;;15.80;45.60;;;;;;5059192;28;20451;-87
2023/04/24 11:09:34;;;;;;;3.53;2.47;;;15.80;46.40;;;;;;5074761;28;20546;-86
2023/04/24 11:12:07;;;;;;;2.43;2.03;;;15.90;46.60;;;;;;5057996;28;20550;-88
2023/04/24 11:15:02;;;;;;;1.80;1.70;;;16.00;46.30;;;;;;5080932;28;20507;-86
2023/04/24 11:17:33;;;;;;;2.63;2.30;;;15.70;47.20;;;;;;5088757;28;20448;-87
2023/04/24 11:20:06;;;;;;;2.70;2.10;;;15.40;47.20;;;;;;5080424;28;20439;-86
2023/04/24 11:22:36;;;;;;;2.10;1.90;;;15.50;47.40;;;;;;5089618;27;20842;-85
2023/04/24 11:25:05;;;;;;;2.20;2.00;;;15.50;46.70;;;;;;5075969;27;20452;-85
2023/04/24 11:27:40;;;;;;;1.83;1.63;;;15.40;47.10;;;;;;5091074;28;20559;-87
2023/04/24 11:30:08;;;;;;;2.33;1.80;;;15.40;47.50;;;;;;5041239;28;21021;-85
2023/04/24 11:32:37;;;;;;;1.83;1.60;;;15.30;47.30;;;;;;5090273;28;20948;-86
2023/04/24 11:35:06;;;;;;;3.00;1.57;;;15.40;47.70;;;;;;5092046;28;20554;-84
2023/04/24 11:37:38;;;;;;;2.90;1.77;;;15.50;48.20;;;;;;5089586;28;20479;-85
2023/04/24 11:40:09;;;;;;;2.10;1.40;;;15.50;48.60;;;;;;5091168;28;20487;-85
2023/04/24 11:42:36;;;;;;;1.83;1.70;;;15.50;47.40;;;;;;5088664;28;20569;-87
2023/04/24 11:45:09;;;;;;;4.10;1.70;;;15.30;47.60;;;;;;5085947;28;20471;-86
2023/04/24 11:47:36;;;;;;;2.17;1.80;;;15.40;48.10;;;;;;5087327;28;20496;-87
2023/04/24 11:50:06;;;;;;;1.73;1.63;;;15.60;48.30;;;;;;5087257;28;20459;-86
2023/04/24 11:52:34;;;;;;;2.73;2.10;;;15.90;47.90;;;;;;5083471;28;20448;-85
2023/04/24 11:55:01;;;;;;;1.50;1.40;;;16.10;48.20;;;;;;5101099;27;20486;-87
2023/04/24 11:57:33;;;;;;;1.70;1.60;;;16.10;47.10;;;;;;5095767;27;20555;-87
2023/04/24 12:00:00;;;;;;;2.20;1.90;;;16.10;47.50;;;;;;5112907;27;20451;-86
2023/04/24 12:02:28;;;;;;;1.80;1.70;;;16.20;47.00;;;;;;5095065;27;20964;-86
2023/04/24 12:04:55;;;;;;;1.83;1.73;;;16.20;46.80;;;;;;5061019;27;20992;-85
2023/04/24 12:07:24;;;;;;;1.60;1.50;;;16.10;46.20;;;;;;5065513;28;20442;-85
2023/04/24 12:09:56;;;;;;;1.70;1.60;;;16.10;46.30;;;;;;5080550;27;20539;-85
2023/04/24 12:12:26;;;;;;;3.13;1.80;;;16.20;46.20;;;;;;5078116;28;20465;-86
2023/04/24 12:14:57;;;;;;;2.30;2.10;;;15.80;45.10;;;;;;5099024;27;20493;-87
2023/04/24 12:17:28;;;;;;;2.67;1.60;;;15.70;46.10;;;;;;5096379;27;20525;-86
2023/04/24 12:20:00;;;;;;;1.80;1.70;;;15.60;45.60;;;;;;5098144;27;21013;-86
2023/04/24 12:22:27;;;;;;;2.10;1.80;;;15.70;45.80;;;;;;5083255;28;20539;-86
2023/04/24 12:25:00;;;;;;;3.87;1.67;;;15.80;45.80;;;;;;5076159;27;20499;-87
2023/04/24 12:27:29;;;;;;;1.63;1.53;;;15.80;46.00;;;;;;5087253;28;20842;-86
2023/04/24 12:29:58;;;;;;;3.47;2.23;;;15.90;47.00;;;;;;5096448;27;21156;-86
2023/04/24 12:32:26;;;;;;;1.67;1.57;;;16.20;46.10;;;;;;5095965;27;20971;-87
2023/04/24 12:34:54;;;;;;;2.03;1.83;;;16.30;45.80;;;;;;5098324;27;20465;-88
2023/04/24 12:37:21;;;;;;;2.63;1.80;;;16.20;45.60;;;;;;5080165;28;20497;-86
2023/04/24 12:40:03;;;;;;;2.17;1.80;;;16.10;45.30;;;;;;5095544;27;20940;-86
2023/04/24 12:42:31;;;;;;;1.97;1.80;;;16.00;45.30;;;;;;5095812;27;20443;-87
2023/04/24 12:45:01;;;;;;;1.60;1.50;;;16.00;46.10;;;;;;5069289;27;20486;-86
2023/04/24 12:47:30;;;;;;;1.60;1.50;;;15.90;46.20;;;;;;5063732;28;20483;-85
2023/04/24 12:49:57;;;;;;;2.00;1.90;;;15.80;46.40;;;;;;5060400;27;20460;-86
2023/04/24 12:52:25;;;;;;;1.97;1.87;;;15.80;47.40;;;;;;5111563;27;20439;-86
2023/04/24 12:54:55;;;;;;;1.70;1.60;;;15.90;47.30;;;;;;5086072;28;20467;-84
2023/04/24 12:57:22;;;;;;;2.67;1.60;;;16.10;46.60;;;;;;5094222;28;20640;-86